createdAt,value
2023-04-21T00:01:03.832Z,99.90
2023-04-21T00:03:34.146Z,99.90
2023-04-21T00:06:03.482Z,99.90
2023-04-21T00:08:30.383Z,99.90
2023-04-21T00:10:57.241Z,99.90
2023-04-21T00:13:24.195Z,99.90
2023-04-21T00:15:51.264Z,99.90
2023-04-21T00:18:18.196Z,99.90
2023-04-21T00:20:45.008Z,99.90
2023-04-21T00:23:11.786Z,99.90
2023-04-21T00:25:38.554Z,99.90
2023-04-21T00:28:05.459Z,99.90
2023-04-21T00:30:32.305Z,99.90
2023-04-21T00:32:59.147Z,99.90
2023-04-21T00:35:26.161Z,99.90
2023-04-21T00:37:53.068Z,99.90
2023-04-21T00:40:20.439Z,99.90
2023-04-21T00:42:47.199Z,99.90
2023-04-21T00:45:15.430Z,99.90
2023-04-21T00:47:42.747Z,99.90
2023-04-21T00:50:10.708Z,99.90
2023-04-21T00:52:42.527Z,99.90
2023-04-21T00:55:09.581Z,99.90
2023-04-21T00:57:37.892Z,99.90
2023-04-21T01:00:06.271Z,99.90
2023-04-21T01:02:35.350Z,99.90
2023-04-21T01:05:02.176Z,99.90
2023-04-21T01:07:28.930Z,99.90
2023-04-21T01:09:56.038Z,99.90
2023-04-21T01:12:22.800Z,99.90
2023-04-21T01:14:50.618Z,99.90
2023-04-21T01:17:18.944Z,99.90
2023-04-21T01:19:45.970Z,99.90
2023-04-21T01:22:13.323Z,99.90
2023-04-21T01:24:41.988Z,99.90
2023-04-21T01:27:13.675Z,99.90
2023-04-21T01:29:41.985Z,99.90
2023-04-21T01:32:14.679Z,99.90
2023-04-21T01:34:42.051Z,99.90
2023-04-21T01:37:10.094Z,99.90
2023-04-21T01:39:41.152Z,99.90
2023-04-21T01:42:09.137Z,99.90
2023-04-21T01:44:36.218Z,99.90
2023-04-21T01:47:03.494Z,99.90
2023-04-21T01:49:30.422Z,99.90
2023-04-21T01:51:57.258Z,99.90
2023-04-21T01:54:24.042Z,99.90
2023-04-21T01:56:50.962Z,99.90
2023-04-21T01:59:18.052Z,99.90
2023-04-21T02:01:45.270Z,99.90
2023-04-21T02:04:12.123Z,99.90
2023-04-21T02:06:39.110Z,99.90
2023-04-21T02:09:06.150Z,99.90
2023-04-21T02:11:32.917Z,99.90
2023-04-21T02:13:59.789Z,99.90
2023-04-21T02:16:26.670Z,99.90
2023-04-21T02:18:54.248Z,99.90
2023-04-21T02:21:24.501Z,99.90
2023-04-21T02:23:52.651Z,99.90
2023-04-21T02:26:19.726Z,99.90
2023-04-21T02:28:46.955Z,99.90
2023-04-21T02:31:13.938Z,99.90
2023-04-21T02:33:41.097Z,99.90
2023-04-21T02:36:08.019Z,99.90
2023-04-21T02:38:34.877Z,99.90
2023-04-21T02:41:01.685Z,99.90
2023-04-21T02:43:29.882Z,99.90
2023-04-21T02:45:56.880Z,99.90
2023-04-21T02:48:26.839Z,99.90
2023-04-21T02:50:53.767Z,99.90
2023-04-21T02:53:20.984Z,99.90
2023-04-21T02:55:47.754Z,99.90
2023-04-21T02:58:15.029Z,99.90
2023-04-21T03:00:41.877Z,99.90
2023-04-21T03:03:08.794Z,99.90
2023-04-21T03:05:36.052Z,99.90
2023-04-21T03:08:02.999Z,99.90
2023-04-21T03:10:29.816Z,99.90
2023-04-21T03:12:56.687Z,99.90
2023-04-21T03:15:23.945Z,99.90
2023-04-21T03:17:50.932Z,99.90
2023-04-21T03:20:17.860Z,99.90
2023-04-21T03:22:44.683Z,99.90
2023-04-21T03:25:12.099Z,99.90
2023-04-21T03:27:38.982Z,99.90
2023-04-21T03:30:07.074Z,99.90
2023-04-21T03:32:33.847Z,99.90
2023-04-21T03:35:00.717Z,99.90
2023-04-21T03:37:27.547Z,99.90
2023-04-21T03:39:54.377Z,99.90
2023-04-21T03:42:21.183Z,99.90
2023-04-21T03:44:47.931Z,99.90
2023-04-21T03:47:16.580Z,99.90
2023-04-21T03:49:43.309Z,99.90
2023-04-21T03:52:12.059Z,99.90
2023-04-21T03:54:38.890Z,99.90
2023-04-21T03:57:05.624Z,99.90
2023-04-21T03:59:32.471Z,99.90
2023-04-21T04:01:59.244Z,99.90
2023-04-21T04:04:26.588Z,99.90
2023-04-21T04:06:53.590Z,99.90
2023-04-21T04:09:20.584Z,99.90
2023-04-21T04:11:47.525Z,99.90
2023-04-21T04:14:14.327Z,99.90
2023-04-21T04:16:41.661Z,99.90
2023-04-21T04:19:08.577Z,99.90
2023-04-21T04:21:35.824Z,99.90
2023-04-21T04:24:03.251Z,99.90
2023-04-21T04:26:30.023Z,99.90
2023-04-21T04:28:56.882Z,99.90
2023-04-21T04:31:25.618Z,99.90
2023-04-21T04:33:55.001Z,99.90
2023-04-21T04:36:22.972Z,99.90
2023-04-21T04:38:51.810Z,99.90
2023-04-21T04:41:20.914Z,99.90
2023-04-21T04:43:47.663Z,99.90
2023-04-21T04:46:14.429Z,99.90
2023-04-21T04:48:41.239Z,99.90
2023-04-21T04:51:08.267Z,99.90
2023-04-21T04:53:34.956Z,99.90
2023-04-21T04:56:01.779Z,99.90
2023-04-21T04:58:28.561Z,99.90
2023-04-21T05:00:55.403Z,99.90
2023-04-21T05:03:22.382Z,99.90
2023-04-21T05:05:49.346Z,99.90
2023-04-21T05:08:17.979Z,99.90
2023-04-21T05:10:45.249Z,99.90
2023-04-21T05:13:12.032Z,99.90
2023-04-21T05:15:38.868Z,99.90
2023-04-21T05:18:10.249Z,99.90
2023-04-21T05:20:37.186Z,99.90
2023-04-21T05:23:03.908Z,99.90
2023-04-21T05:25:30.917Z,99.90
2023-04-21T05:27:57.650Z,99.90
2023-04-21T05:30:24.476Z,99.90
2023-04-21T05:32:51.677Z,99.90
2023-04-21T05:35:18.428Z,99.90
2023-04-21T05:37:45.121Z,99.90
2023-04-21T05:40:11.868Z,99.90
2023-04-21T05:42:38.587Z,99.90
2023-04-21T05:45:05.831Z,99.90
2023-04-21T05:47:32.612Z,99.90
2023-04-21T05:49:59.461Z,99.90
2023-04-21T05:52:26.167Z,99.90
2023-04-21T05:54:52.911Z,99.90
2023-04-21T05:57:19.680Z,99.90
2023-04-21T05:59:46.418Z,99.90
2023-04-21T06:02:15.719Z,99.90
2023-04-21T06:04:42.740Z,99.90
2023-04-21T06:07:12.955Z,99.90
2023-04-21T06:09:41.175Z,99.90
2023-04-21T06:12:08.022Z,99.90
2023-04-21T06:14:34.760Z,99.90
2023-04-21T06:17:01.670Z,99.90
2023-04-21T06:19:28.452Z,99.90
2023-04-21T06:21:56.824Z,99.90
2023-04-21T06:24:25.592Z,99.90
2023-04-21T06:26:53.215Z,99.90
2023-04-21T06:29:20.820Z,99.90
2023-04-21T06:31:47.620Z,99.90
2023-04-21T06:34:14.435Z,99.90
2023-04-21T06:36:41.154Z,99.90
2023-04-21T06:39:07.908Z,99.90
2023-04-21T06:41:34.713Z,99.90
2023-04-21T06:44:01.522Z,99.90
2023-04-21T06:46:28.350Z,99.90
2023-04-21T06:48:55.149Z,99.90
2023-04-21T06:51:21.906Z,99.90
2023-04-21T06:53:48.638Z,99.90
2023-04-21T06:56:15.511Z,99.90
2023-04-21T06:58:42.273Z,99.90
2023-04-21T07:01:09.086Z,99.90
2023-04-21T07:03:35.995Z,99.90
2023-04-21T07:06:02.852Z,99.90
2023-04-21T07:08:29.575Z,99.90
2023-04-21T07:10:56.333Z,99.90
2023-04-21T07:13:23.222Z,99.90
2023-04-21T07:15:49.971Z,99.90
2023-04-21T07:18:16.815Z,99.90
2023-04-21T07:20:43.625Z,99.90
2023-04-21T07:23:10.583Z,99.90
2023-04-21T07:25:37.563Z,99.90
2023-04-21T07:28:04.941Z,99.90
2023-04-21T07:30:31.717Z,99.90
2023-04-21T07:32:58.615Z,99.90
2023-04-21T07:35:25.685Z,99.90
2023-04-21T07:37:52.515Z,99.90
2023-04-21T07:40:19.822Z,99.90
2023-04-21T07:42:46.586Z,99.90
2023-04-21T07:45:13.398Z,99.90
2023-04-21T07:47:40.317Z,99.90
2023-04-21T07:50:07.824Z,99.90
2023-04-21T07:52:34.539Z,99.90
2023-04-21T07:55:01.372Z,99.90
2023-04-21T07:57:28.218Z,99.90
2023-04-21T07:59:54.976Z,99.90
2023-04-21T08:02:21.976Z,99.90
2023-04-21T08:04:49.068Z,99.90
2023-04-21T08:07:16.171Z,99.90
2023-04-21T08:09:42.983Z,99.90
2023-04-21T08:12:09.987Z,99.90
2023-04-21T08:14:36.973Z,99.90
2023-04-21T08:17:03.783Z,99.90
2023-04-21T08:19:30.868Z,99.90
2023-04-21T08:21:58.597Z,99.90
2023-04-21T08:24:25.513Z,99.90
2023-04-21T08:26:52.390Z,99.90
2023-04-21T08:29:19.182Z,99.90
2023-04-21T08:31:46.577Z,99.90
2023-04-21T08:34:13.802Z,99.90
2023-04-21T08:36:42.658Z,99.90
2023-04-21T08:39:10.025Z,99.90
2023-04-21T08:41:39.685Z,99.90
2023-04-21T08:44:06.967Z,99.90
2023-04-21T08:46:33.735Z,99.90
2023-04-21T08:49:00.586Z,99.90
2023-04-21T08:51:27.824Z,99.90
2023-04-21T08:53:58.117Z,99.90
2023-04-21T08:56:25.995Z,99.90
2023-04-21T08:58:53.588Z,99.90
2023-04-21T09:01:20.792Z,99.90
2023-04-21T09:03:47.792Z,99.90
2023-04-21T09:06:15.290Z,99.90
2023-04-21T09:08:43.880Z,99.90
2023-04-21T09:11:15.007Z,99.90
2023-04-21T09:13:42.984Z,99.90
2023-04-21T09:16:18.539Z,99.90
2023-04-21T09:18:45.571Z,99.90
2023-04-21T09:21:14.364Z,99.90
2023-04-21T09:23:46.652Z,99.90
2023-04-21T09:26:13.845Z,99.90
2023-04-21T09:28:41.860Z,99.90
2023-04-21T09:31:19.960Z,99.90
2023-04-21T09:34:00.853Z,99.90
2023-04-21T09:36:30.169Z,99.90
2023-04-21T09:41:28.789Z,99.90
2023-04-21T09:43:55.778Z,99.90
2023-04-21T09:46:22.619Z,99.90
2023-04-21T09:48:49.589Z,99.90
2023-04-21T09:53:49.415Z,99.90
2023-04-21T09:56:16.898Z,99.90
2023-04-21T09:58:48.571Z,99.90
2023-04-21T10:01:15.798Z,99.90
2023-04-21T10:03:44.924Z,99.90
2023-04-21T10:06:12.456Z,99.90
2023-04-21T10:08:39.543Z,99.90
2023-04-21T10:11:06.407Z,99.90
2023-04-21T10:13:33.226Z,99.90
2023-04-21T10:16:07.985Z,99.90
2023-04-21T10:18:37.406Z,99.90
2023-04-21T10:21:09.501Z,99.90
2023-04-21T10:23:40.227Z,99.90
2023-04-21T10:26:15.103Z,99.90
2023-04-21T10:28:42.938Z,99.90
2023-04-21T10:31:51.317Z,99.90
2023-04-21T10:34:20.282Z,99.90
2023-04-21T10:36:47.201Z,99.90
2023-04-21T10:39:37.408Z,99.90
2023-04-21T10:42:13.490Z,99.90
2023-04-21T10:44:44.293Z,99.90
2023-04-21T10:47:11.422Z,99.90
2023-04-21T10:49:39.369Z,99.90
2023-04-21T10:52:08.123Z,99.90
2023-04-21T10:54:42.157Z,99.90
2023-04-21T10:57:20.673Z,99.90
2023-04-21T10:59:49.496Z,99.90
2023-04-21T11:02:18.108Z,99.90
2023-04-21T11:04:48.374Z,99.90
2023-04-21T11:07:17.490Z,99.90
2023-04-21T11:09:45.954Z,99.30
2023-04-21T11:12:20.395Z,99.20
2023-04-21T11:14:50.625Z,98.90
2023-04-21T11:17:19.323Z,99.10
2023-04-21T11:19:51.260Z,98.00
2023-04-21T11:22:21.449Z,96.70
2023-04-21T11:24:50.605Z,95.70
2023-04-21T11:27:18.047Z,94.90
2023-04-21T11:29:49.293Z,94.40
2023-04-21T11:32:17.001Z,93.80
2023-04-21T11:34:43.804Z,93.40
2023-04-21T11:37:14.946Z,92.50
2023-04-21T11:39:42.168Z,91.10
2023-04-21T11:42:09.007Z,88.80
2023-04-21T11:44:36.864Z,87.20
2023-04-21T11:47:20.162Z,87.00
2023-04-21T11:49:57.077Z,85.70
2023-04-21T11:52:33.165Z,84.30
2023-04-21T11:55:01.312Z,83.40
2023-04-21T11:57:29.368Z,81.70
2023-04-21T12:00:08.772Z,79.90
2023-04-21T12:02:35.743Z,79.60
2023-04-21T12:05:04.584Z,79.90
2023-04-21T12:07:32.831Z,79.70
2023-04-21T12:10:00.794Z,78.90
2023-04-21T12:12:27.774Z,77.30
2023-04-21T12:14:54.899Z,76.80
2023-04-21T12:17:21.878Z,74.30
2023-04-21T12:19:48.728Z,72.10
2023-04-21T12:22:18.287Z,71.20
2023-04-21T12:24:45.608Z,71.20
2023-04-21T12:27:12.749Z,71.60
2023-04-21T12:32:10.559Z,70.30
2023-04-21T12:34:37.777Z,66.30
2023-04-21T12:37:04.914Z,63.20
2023-04-21T12:39:32.149Z,62.50
2023-04-21T12:41:59.522Z,62.10
2023-04-21T12:44:26.388Z,62.00
2023-04-21T12:46:53.517Z,62.20
2023-04-21T12:49:23.389Z,62.50
2023-04-21T12:51:50.131Z,62.10
2023-04-21T12:54:17.183Z,63.00
2023-04-21T12:56:44.151Z,62.10
2023-04-21T12:59:11.185Z,61.70
2023-04-21T13:01:39.067Z,60.20
2023-04-21T13:04:06.283Z,59.50
2023-04-21T13:06:33.825Z,59.50
2023-04-21T13:09:00.786Z,59.50
2023-04-21T13:11:27.802Z,59.50
2023-04-21T13:13:54.585Z,59.80
2023-04-21T13:16:21.395Z,59.20
2023-04-21T13:18:48.375Z,58.70
2023-04-21T13:21:15.399Z,57.50
2023-04-21T13:23:42.240Z,57.90
2023-04-21T13:26:09.175Z,57.70
2023-04-21T13:28:36.289Z,58.40
2023-04-21T13:33:34.800Z,57.30
2023-04-21T13:36:03.076Z,57.80
2023-04-21T13:40:57.854Z,56.00
2023-04-21T13:43:24.957Z,56.50
2023-04-21T13:45:52.383Z,56.10
2023-04-21T13:48:24.135Z,55.90
2023-04-21T13:50:51.597Z,56.20
2023-04-21T13:53:21.169Z,56.40
2023-04-21T13:55:48.457Z,57.00
2023-04-21T13:58:15.919Z,56.90
2023-04-21T14:00:42.680Z,56.60
2023-04-21T14:03:11.922Z,56.70
2023-04-21T14:05:39.236Z,57.30
2023-04-21T14:08:06.260Z,58.10
2023-04-21T14:10:33.224Z,57.90
2023-04-21T14:13:00.070Z,57.60
2023-04-21T14:15:27.002Z,57.80
2023-04-21T14:17:54.023Z,58.40
2023-04-21T14:20:20.898Z,58.80
2023-04-21T14:22:48.047Z,59.30
2023-04-21T14:25:15.053Z,59.80
2023-04-21T14:27:42.025Z,60.40
2023-04-21T14:30:10.540Z,60.80
2023-04-21T14:32:37.681Z,61.30
2023-04-21T14:35:05.595Z,62.00
2023-04-21T14:37:33.124Z,62.50
2023-04-21T14:40:00.059Z,63.10
2023-04-21T14:42:27.002Z,62.90
2023-04-21T14:44:53.930Z,63.10
2023-04-21T14:47:21.494Z,62.80
2023-04-21T14:49:49.878Z,62.90
2023-04-21T14:52:16.723Z,63.00
2023-04-21T14:54:43.574Z,63.40
2023-04-21T14:57:18.673Z,63.90
2023-04-21T14:59:46.813Z,64.50
2023-04-21T15:02:14.114Z,64.70
2023-04-21T15:04:41.523Z,65.00
2023-04-21T15:07:08.490Z,65.20
2023-04-21T15:09:39.042Z,65.30
2023-04-21T15:12:06.333Z,65.30
2023-04-21T15:14:33.296Z,65.50
2023-04-21T15:17:00.234Z,65.40
2023-04-21T15:19:26.975Z,65.50
2023-04-21T15:21:53.767Z,65.30
2023-04-21T15:24:20.608Z,65.50
2023-04-21T15:26:47.364Z,65.70
2023-04-21T15:29:14.116Z,66.10
2023-04-21T15:31:41.078Z,66.40
2023-04-21T15:34:07.940Z,66.50
2023-04-21T15:36:34.707Z,66.60
2023-04-21T15:39:01.472Z,66.70
2023-04-21T15:41:31.136Z,66.60
2023-04-21T15:44:00.831Z,67.00
2023-04-21T15:46:27.893Z,67.20
2023-04-21T15:48:54.958Z,67.10
2023-04-21T15:51:21.753Z,67.30
2023-04-21T15:53:49.346Z,67.40
2023-04-21T15:56:17.087Z,67.40
2023-04-21T15:58:43.908Z,67.60
2023-04-21T16:01:11.070Z,67.80
2023-04-21T16:03:40.168Z,68.10
2023-04-21T16:06:07.793Z,68.50
2023-04-21T16:08:34.657Z,69.00
2023-04-21T16:11:01.642Z,69.10
2023-04-21T16:13:28.698Z,69.20
2023-04-21T16:15:55.599Z,69.30
2023-04-21T16:18:22.633Z,69.10
2023-04-21T16:20:49.397Z,69.30
2023-04-21T16:23:17.570Z,69.40
2023-04-21T16:25:44.710Z,69.80
2023-04-21T16:28:11.718Z,69.80
2023-04-21T16:30:43.179Z,69.50
2023-04-21T16:33:11.260Z,69.80
2023-04-21T16:35:39.005Z,70.00
2023-04-21T16:38:06.073Z,70.20
2023-04-21T16:40:33.253Z,70.10
2023-04-21T16:43:00.313Z,70.20
2023-04-21T16:45:28.289Z,70.60
2023-04-21T16:47:55.249Z,70.90
2023-04-21T16:50:22.197Z,71.00
2023-04-21T16:52:49.219Z,71.30
2023-04-21T16:55:16.393Z,71.40
2023-04-21T16:57:43.373Z,71.50
2023-04-21T17:00:11.050Z,71.60
2023-04-21T17:02:38.295Z,71.80
2023-04-21T17:05:05.790Z,72.00
2023-04-21T17:07:35.553Z,72.10
2023-04-21T17:10:02.511Z,72.10
2023-04-21T17:12:29.252Z,72.20
2023-04-21T17:14:56.132Z,72.40
2023-04-21T17:17:23.062Z,72.30
2023-04-21T17:19:50.128Z,72.20
2023-04-21T17:25:58.133Z,72.30
2023-04-21T17:28:25.025Z,72.60
2023-04-21T17:31:00.298Z,72.70
2023-04-21T17:33:34.324Z,72.70
2023-04-21T17:36:03.488Z,72.90
2023-04-21T17:38:30.620Z,73.10
2023-04-21T17:40:57.853Z,73.10
2023-04-21T17:43:24.591Z,73.30
2023-04-21T17:45:52.382Z,73.50
2023-04-21T17:48:19.782Z,73.60
2023-04-21T17:50:46.748Z,73.70
2023-04-21T17:53:13.561Z,74.00
2023-04-21T17:55:41.015Z,74.40
2023-04-21T17:58:10.135Z,74.60
2023-04-21T18:00:38.467Z,74.80
2023-04-21T18:03:05.364Z,75.10
2023-04-21T18:05:32.315Z,75.20
2023-04-21T18:07:59.282Z,75.90
2023-04-21T18:10:28.348Z,76.60
2023-04-21T18:12:56.564Z,77.50
2023-04-21T18:15:23.470Z,78.40
2023-04-21T18:17:50.380Z,79.20
2023-04-21T18:20:17.221Z,80.10
2023-04-21T18:22:44.155Z,80.70
2023-04-21T18:25:14.173Z,81.80
2023-04-21T18:27:41.148Z,82.70
2023-04-21T18:30:08.881Z,83.60
2023-04-21T18:32:36.417Z,84.70
2023-04-21T18:35:04.505Z,85.50
2023-04-21T18:37:31.547Z,86.60
2023-04-21T18:39:58.340Z,87.70
2023-04-21T18:42:26.238Z,88.50
2023-04-21T18:44:56.230Z,89.30
2023-04-21T18:47:26.419Z,90.00
2023-04-21T18:49:53.177Z,90.40
2023-04-21T18:52:19.965Z,90.70
2023-04-21T18:54:46.807Z,91.00
2023-04-21T18:57:13.605Z,91.40
2023-04-21T18:59:40.627Z,91.80
2023-04-21T19:02:07.673Z,92.00
2023-04-21T19:04:34.739Z,92.40
2023-04-21T19:07:01.919Z,92.70
2023-04-21T19:09:28.858Z,93.10
2023-04-21T19:11:55.774Z,93.60
2023-04-21T19:14:22.593Z,93.80
2023-04-21T19:16:50.714Z,94.20
2023-04-21T19:19:19.353Z,94.40
2023-04-21T19:21:46.585Z,94.70
2023-04-21T19:24:13.443Z,95.10
2023-04-21T19:26:40.258Z,95.30
2023-04-21T19:29:11.594Z,95.50
2023-04-21T19:31:38.672Z,95.60
2023-04-21T19:34:05.616Z,95.90
2023-04-21T19:36:32.841Z,96.00
2023-04-21T19:38:59.624Z,96.20
2023-04-21T19:41:26.492Z,96.40
2023-04-21T19:43:53.334Z,96.50
2023-04-21T19:46:20.190Z,96.70
2023-04-21T19:48:47.067Z,96.90
2023-04-21T19:51:13.894Z,97.00
2023-04-21T19:53:40.854Z,96.90
2023-04-21T19:56:07.712Z,97.00
2023-04-21T19:58:40.666Z,97.10
2023-04-21T20:01:08.004Z,97.20
2023-04-21T20:03:35.365Z,97.40
2023-04-21T20:06:04.722Z,97.40
2023-04-21T20:08:31.621Z,97.50
2023-04-21T20:10:58.402Z,97.50
2023-04-21T20:13:25.672Z,97.60
2023-04-21T20:15:52.616Z,97.80
2023-04-21T20:18:19.884Z,98.00
2023-04-21T20:20:46.849Z,98.00
2023-04-21T20:23:13.739Z,98.10
2023-04-21T20:25:40.607Z,98.20
2023-04-21T20:28:07.384Z,98.50
2023-04-21T20:30:34.166Z,98.30
2023-04-21T20:33:01.032Z,98.40
2023-04-21T20:35:30.569Z,98.50
2023-04-21T20:37:58.411Z,98.50
2023-04-21T20:40:25.179Z,98.70
2023-04-21T20:42:52.098Z,98.70
2023-04-21T20:45:19.632Z,98.80
2023-04-21T20:47:46.467Z,99.10
2023-04-21T20:50:13.543Z,98.90
2023-04-21T20:52:40.529Z,98.90
2023-04-21T20:55:08.067Z,99.00
2023-04-21T20:57:35.199Z,99.10
2023-04-21T21:00:02.123Z,99.10
2023-04-21T21:02:29.236Z,99.20
2023-04-21T21:04:56.312Z,99.30
2023-04-21T21:07:23.278Z,99.30
2023-04-21T21:09:50.382Z,99.40
2023-04-21T21:12:17.433Z,99.40
2023-04-21T21:14:44.333Z,99.50
2023-04-21T21:17:12.976Z,99.40
2023-04-21T21:19:40.460Z,99.40
2023-04-21T21:22:07.533Z,99.40
2023-04-21T21:24:34.416Z,99.50
2023-04-21T21:27:01.436Z,99.60
2023-04-21T21:29:29.355Z,99.50
2023-04-21T21:31:56.264Z,99.50
2023-04-21T21:34:23.097Z,99.50
2023-04-21T21:36:49.933Z,99.60
2023-04-21T21:39:16.737Z,99.60
2023-04-21T21:41:43.672Z,99.60
2023-04-21T21:44:10.501Z,99.50
2023-04-21T21:46:37.382Z,99.60
2023-04-21T21:49:04.201Z,99.60
2023-04-21T21:51:31.334Z,99.60
2023-04-21T21:53:58.216Z,99.80
2023-04-21T21:56:25.939Z,99.70
2023-04-21T21:58:53.023Z,99.70
2023-04-21T22:01:19.867Z,99.60
2023-04-21T22:03:47.399Z,99.70
2023-04-21T22:06:16.939Z,99.70
2023-04-21T22:08:45.521Z,99.70
2023-04-21T22:11:12.483Z,99.80
2023-04-21T22:13:39.227Z,99.80
2023-04-21T22:16:07.117Z,99.80
2023-04-21T22:18:33.954Z,99.80
2023-04-21T22:21:00.777Z,99.80
2023-04-21T22:23:27.535Z,99.80
2023-04-21T22:25:54.341Z,99.70
2023-04-21T22:28:21.206Z,99.90
2023-04-21T22:30:47.988Z,99.90
2023-04-21T22:33:14.870Z,99.90
2023-04-21T22:35:41.875Z,99.90
2023-04-21T22:38:08.656Z,99.90
2023-04-21T22:40:35.977Z,99.90
2023-04-21T22:43:02.887Z,99.90
2023-04-21T22:45:29.757Z,99.90
2023-04-21T22:47:56.856Z,99.80
2023-04-21T22:50:24.303Z,99.70
2023-04-21T22:52:51.832Z,99.70
2023-04-21T22:55:18.651Z,99.80
2023-04-21T22:57:45.570Z,99.80
2023-04-21T23:00:12.774Z,99.70
2023-04-21T23:02:39.733Z,99.70
2023-04-21T23:05:06.990Z,99.70
2023-04-21T23:07:33.828Z,99.80
2023-04-21T23:10:00.594Z,99.80
2023-04-21T23:12:27.396Z,99.80
2023-04-21T23:14:54.224Z,99.70
2023-04-21T23:17:21.959Z,99.80
2023-04-21T23:19:48.792Z,99.80
2023-04-21T23:22:15.510Z,99.80
2023-04-21T23:24:42.303Z,99.70
2023-04-21T23:27:09.064Z,99.60
2023-04-21T23:29:35.964Z,99.60
2023-04-21T23:32:03.030Z,99.60
2023-04-21T23:34:29.818Z,99.60
2023-04-21T23:36:56.577Z,99.50
2023-04-21T23:39:23.457Z,99.40
2023-04-21T23:41:50.329Z,99.40
2023-04-21T23:44:17.090Z,99.30
2023-04-21T23:46:43.858Z,99.20
2023-04-21T23:49:10.816Z,99.20
2023-04-21T23:51:37.692Z,99.10
2023-04-21T23:54:04.681Z,99.10
2023-04-21T23:56:31.559Z,99.10
2023-04-21T23:58:58.577Z,99.20
